sensor_id;sensor_type;location;lat;lon;timestamp;P1;durP1;ratioP1;P2;durP2;ratioP2
71856;SDS011;59712;46.980;28.882;2022-08-19T00:02:12;14.27;;;11.20;;
71856;SDS011;59712;46.980;28.882;2022-08-19T00:04:39;13.93;;;9.15;;
71856;SDS011;59712;46.980;28.882;2022-08-19T00:07:06;17.80;;;9.63;;
71856;SDS011;59712;46.980;28.882;2022-08-19T00:09:34;14.90;;;9.75;;
71856;SDS011;59712;46.980;28.882;2022-08-19T00:12:01;19.25;;;10.30;;
71856;SDS011;59712;46.980;28.882;2022-08-19T00:14:30;14.65;;;9.50;;
71856;SDS011;59712;46.980;28.882;2022-08-19T00:16:58;16.77;;;10.23;;
71856;SDS011;59712;46.980;28.882;2022-08-19T00:19:26;13.00;;;9.00;;
71856;SDS011;59712;46.980;28.882;2022-08-19T00:21:53;17.58;;;9.88;;
71856;SDS011;59712;46.980;28.882;2022-08-19T00:24:23;16.60;;;9.35;;
71856;SDS011;59712;46.980;28.882;2022-08-19T00:26:50;13.50;;;8.93;;
71856;SDS011;59712;46.980;28.882;2022-08-19T00:29:18;17.73;;;9.82;;
71856;SDS011;59712;46.980;28.882;2022-08-19T00:31:47;17.55;;;9.35;;
71856;SDS011;59712;46.980;28.882;2022-08-19T00:34:16;14.27;;;9.35;;
71856;SDS011;59712;46.980;28.882;2022-08-19T00:36:43;13.52;;;8.75;;
71856;SDS011;59712;46.980;28.882;2022-08-19T00:39:11;12.13;;;8.65;;
71856;SDS011;59712;46.980;28.882;2022-08-19T00:41:39;16.27;;;9.23;;
71856;SDS011;59712;46.980;28.882;2022-08-19T00:46:44;16.02;;;8.77;;
71856;SDS011;59712;46.980;28.882;2022-08-19T00:52:20;15.30;;;9.13;;
71856;SDS011;59712;46.980;28.882;2022-08-19T00:54:50;16.15;;;8.60;;
71856;SDS011;59712;46.980;28.882;2022-08-19T00:57:20;13.70;;;9.43;;
71856;SDS011;59712;46.980;28.882;2022-08-19T00:59:54;15.25;;;8.88;;
71856;SDS011;59712;46.980;28.882;2022-08-19T01:02:29;19.67;;;10.57;;
71856;SDS011;59712;46.980;28.882;2022-08-19T01:04:57;13.02;;;9.10;;
71856;SDS011;59712;46.980;28.882;2022-08-19T01:07:25;13.65;;;9.65;;
71856;SDS011;59712;46.980;28.882;2022-08-19T01:09:53;17.50;;;9.70;;
71856;SDS011;59712;46.980;28.882;2022-08-19T01:12:20;16.88;;;8.88;;
71856;SDS011;59712;46.980;28.882;2022-08-19T01:14:48;16.65;;;9.23;;
71856;SDS011;59712;46.980;28.882;2022-08-19T01:17:17;18.02;;;9.27;;
71856;SDS011;59712;46.980;28.882;2022-08-19T01:19:45;15.70;;;8.98;;
71856;SDS011;59712;46.980;28.882;2022-08-19T01:22:25;15.23;;;8.85;;
71856;SDS011;59712;46.980;28.882;2022-08-19T01:25:00;18.08;;;9.48;;
71856;SDS011;59712;46.980;28.882;2022-08-19T01:27:36;13.63;;;8.50;;
71856;SDS011;59712;46.980;28.882;2022-08-19T01:30:12;15.35;;;10.50;;
71856;SDS011;59712;46.980;28.882;2022-08-19T01:32:46;14.43;;;9.10;;
71856;SDS011;59712;46.980;28.882;2022-08-19T01:35:13;16.00;;;8.98;;
71856;SDS011;59712;46.980;28.882;2022-08-19T01:37:44;14.43;;;9.45;;
71856;SDS011;59712;46.980;28.882;2022-08-19T01:40:19;16.73;;;10.77;;
71856;SDS011;59712;46.980;28.882;2022-08-19T01:42:48;18.00;;;9.27;;
71856;SDS011;59712;46.980;28.882;2022-08-19T01:45:24;14.75;;;9.60;;
71856;SDS011;59712;46.980;28.882;2022-08-19T01:47:53;14.43;;;8.80;;
71856;SDS011;59712;46.980;28.882;2022-08-19T01:52:56;16.50;;;9.15;;
71856;SDS011;59712;46.980;28.882;2022-08-19T01:55:33;18.25;;;9.10;;
71856;SDS011;59712;46.980;28.882;2022-08-19T01:58:11;16.77;;;9.85;;
71856;SDS011;59712;46.980;28.882;2022-08-19T02:00:42;14.38;;;8.85;;
71856;SDS011;59712;46.980;28.882;2022-08-19T02:03:09;16.15;;;8.95;;
71856;SDS011;59712;46.980;28.882;2022-08-19T02:05:38;16.20;;;9.10;;
71856;SDS011;59712;46.980;28.882;2022-08-19T02:08:09;16.90;;;9.30;;
71856;SDS011;59712;46.980;28.882;2022-08-19T02:10:41;19.52;;;9.65;;
71856;SDS011;59712;46.980;28.882;2022-08-19T02:13:11;12.70;;;9.13;;
71856;SDS011;59712;46.980;28.882;2022-08-19T02:15:40;17.08;;;9.63;;
71856;SDS011;59712;46.980;28.882;2022-08-19T02:18:08;25.98;;;9.48;;
71856;SDS011;59712;46.980;28.882;2022-08-19T02:20:36;14.35;;;10.10;;
71856;SDS011;59712;46.980;28.882;2022-08-19T02:23:05;18.13;;;9.20;;
71856;SDS011;59712;46.980;28.882;2022-08-19T02:25:42;17.65;;;10.38;;
71856;SDS011;59712;46.980;28.882;2022-08-19T02:28:14;22.45;;;9.57;;
71856;SDS011;59712;46.980;28.882;2022-08-19T02:30:45;14.93;;;9.88;;
71856;SDS011;59712;46.980;28.882;2022-08-19T02:33:13;15.70;;;9.88;;
71856;SDS011;59712;46.980;28.882;2022-08-19T02:35:41;13.30;;;8.95;;
71856;SDS011;59712;46.980;28.882;2022-08-19T02:38:10;13.43;;;8.35;;
71856;SDS011;59712;46.980;28.882;2022-08-19T02:40:54;17.15;;;9.55;;
71856;SDS011;59712;46.980;28.882;2022-08-19T02:43:23;18.52;;;10.95;;
71856;SDS011;59712;46.980;28.882;2022-08-19T02:45:51;20.10;;;8.85;;
71856;SDS011;59712;46.980;28.882;2022-08-19T02:48:19;15.85;;;9.35;;
71856;SDS011;59712;46.980;28.882;2022-08-19T02:50:49;15.98;;;9.65;;
71856;SDS011;59712;46.980;28.882;2022-08-19T02:53:23;23.85;;;10.13;;
71856;SDS011;59712;46.980;28.882;2022-08-19T02:55:53;16.98;;;9.50;;
71856;SDS011;59712;46.980;28.882;2022-08-19T02:58:21;17.15;;;9.18;;
71856;SDS011;59712;46.980;28.882;2022-08-19T03:00:52;17.15;;;9.23;;
71856;SDS011;59712;46.980;28.882;2022-08-19T03:03:21;16.85;;;8.77;;
71856;SDS011;59712;46.980;28.882;2022-08-19T03:05:48;14.40;;;8.85;;
71856;SDS011;59712;46.980;28.882;2022-08-19T03:08:23;14.48;;;8.80;;
71856;SDS011;59712;46.980;28.882;2022-08-19T03:10:52;17.42;;;10.63;;
71856;SDS011;59712;46.980;28.882;2022-08-19T03:13:20;19.42;;;9.38;;
71856;SDS011;59712;46.980;28.882;2022-08-19T03:15:48;17.10;;;8.70;;
71856;SDS011;59712;46.980;28.882;2022-08-19T03:18:16;20.65;;;9.38;;
71856;SDS011;59712;46.980;28.882;2022-08-19T03:20:44;19.42;;;9.10;;
71856;SDS011;59712;46.980;28.882;2022-08-19T03:23:14;19.23;;;10.68;;
71856;SDS011;59712;46.980;28.882;2022-08-19T03:25:44;12.77;;;8.18;;
71856;SDS011;59712;46.980;28.882;2022-08-19T03:28:24;16.35;;;8.88;;
71856;SDS011;59712;46.980;28.882;2022-08-19T03:30:55;15.73;;;9.23;;
71856;SDS011;59712;46.980;28.882;2022-08-19T03:33:51;15.95;;;8.77;;
71856;SDS011;59712;46.980;28.882;2022-08-19T03:36:19;15.90;;;9.00;;
71856;SDS011;59712;46.980;28.882;2022-08-19T03:38:55;15.93;;;9.18;;
71856;SDS011;59712;46.980;28.882;2022-08-19T03:41:29;16.00;;;8.18;;
71856;SDS011;59712;46.980;28.882;2022-08-19T03:44:15;19.15;;;10.23;;
71856;SDS011;59712;46.980;28.882;2022-08-19T03:46:46;13.38;;;7.90;;
71856;SDS011;59712;46.980;28.882;2022-08-19T03:49:16;16.67;;;8.55;;
71856;SDS011;59712;46.980;28.882;2022-08-19T03:51:46;15.15;;;8.75;;
71856;SDS011;59712;46.980;28.882;2022-08-19T03:54:15;14.68;;;9.45;;
71856;SDS011;59712;46.980;28.882;2022-08-19T03:56:45;21.52;;;9.60;;
71856;SDS011;59712;46.980;28.882;2022-08-19T03:59:15;15.95;;;9.85;;
71856;SDS011;59712;46.980;28.882;2022-08-19T04:01:49;18.20;;;8.45;;
71856;SDS011;59712;46.980;28.882;2022-08-19T04:04:20;15.15;;;8.55;;
71856;SDS011;59712;46.980;28.882;2022-08-19T04:06:48;16.65;;;10.13;;
71856;SDS011;59712;46.980;28.882;2022-08-19T04:09:16;14.77;;;7.85;;
71856;SDS011;59712;46.980;28.882;2022-08-19T04:11:46;15.30;;;10.15;;
71856;SDS011;59712;46.980;28.882;2022-08-19T04:14:18;23.58;;;10.23;;
71856;SDS011;59712;46.980;28.882;2022-08-19T04:16:51;18.10;;;7.15;;
71856;SDS011;59712;46.980;28.882;2022-08-19T04:19:24;14.63;;;7.22;;
71856;SDS011;59712;46.980;28.882;2022-08-19T04:21:53;17.05;;;7.47;;
71856;SDS011;59712;46.980;28.882;2022-08-19T04:24:21;14.68;;;7.85;;
71856;SDS011;59712;46.980;28.882;2022-08-19T04:26:49;14.55;;;7.13;;
71856;SDS011;59712;46.980;28.882;2022-08-19T04:29:22;20.77;;;8.52;;
71856;SDS011;59712;46.980;28.882;2022-08-19T04:31:55;16.08;;;7.75;;
71856;SDS011;59712;46.980;28.882;2022-08-19T04:34:23;13.32;;;7.43;;
71856;SDS011;59712;46.980;28.882;2022-08-19T04:36:56;16.13;;;8.18;;
71856;SDS011;59712;46.980;28.882;2022-08-19T04:39:28;14.82;;;7.63;;
71856;SDS011;59712;46.980;28.882;2022-08-19T04:42:16;17.45;;;7.88;;
71856;SDS011;59712;46.980;28.882;2022-08-19T04:45:04;15.93;;;8.25;;
71856;SDS011;59712;46.980;28.882;2022-08-19T04:47:39;16.05;;;8.77;;
71856;SDS011;59712;46.980;28.882;2022-08-19T04:50:25;11.35;;;7.50;;
71856;SDS011;59712;46.980;28.882;2022-08-19T04:52:53;10.88;;;7.13;;
71856;SDS011;59712;46.980;28.882;2022-08-19T04:55:22;17.65;;;8.05;;
71856;SDS011;59712;46.980;28.882;2022-08-19T04:57:53;13.48;;;7.47;;
71856;SDS011;59712;46.980;28.882;2022-08-19T05:00:22;13.20;;;7.78;;
71856;SDS011;59712;46.980;28.882;2022-08-19T05:02:51;19.95;;;7.35;;
71856;SDS011;59712;46.980;28.882;2022-08-19T05:05:19;15.20;;;7.88;;
71856;SDS011;59712;46.980;28.882;2022-08-19T05:07:46;14.57;;;7.38;;
71856;SDS011;59712;46.980;28.882;2022-08-19T05:10:13;15.43;;;7.05;;
71856;SDS011;59712;46.980;28.882;2022-08-19T05:12:43;16.88;;;7.10;;
71856;SDS011;59712;46.980;28.882;2022-08-19T05:15:13;15.88;;;7.75;;
71856;SDS011;59712;46.980;28.882;2022-08-19T05:17:41;16.13;;;7.25;;
71856;SDS011;59712;46.980;28.882;2022-08-19T05:20:29;19.27;;;7.40;;
71856;SDS011;59712;46.980;28.882;2022-08-19T05:23:15;14.00;;;7.03;;
71856;SDS011;59712;46.980;28.882;2022-08-19T05:25:49;14.70;;;7.47;;
71856;SDS011;59712;46.980;28.882;2022-08-19T05:28:20;14.40;;;8.05;;
71856;SDS011;59712;46.980;28.882;2022-08-19T05:30:51;14.90;;;7.38;;
71856;SDS011;59712;46.980;28.882;2022-08-19T05:33:22;16.65;;;7.75;;
71856;SDS011;59712;46.980;28.882;2022-08-19T05:35:54;14.85;;;7.43;;
71856;SDS011;59712;46.980;28.882;2022-08-19T05:38:22;15.73;;;8.05;;
71856;SDS011;59712;46.980;28.882;2022-08-19T05:40:49;13.02;;;7.18;;
71856;SDS011;59712;46.980;28.882;2022-08-19T05:43:18;13.35;;;6.85;;
71856;SDS011;59712;46.980;28.882;2022-08-19T05:46:01;16.48;;;7.55;;
71856;SDS011;59712;46.980;28.882;2022-08-19T05:48:30;18.45;;;7.95;;
71856;SDS011;59712;46.980;28.882;2022-08-19T05:51:03;14.65;;;8.65;;
71856;SDS011;59712;46.980;28.882;2022-08-19T05:53:35;15.00;;;6.85;;
71856;SDS011;59712;46.980;28.882;2022-08-19T05:56:07;17.90;;;7.63;;
71856;SDS011;59712;46.980;28.882;2022-08-19T05:58:36;16.77;;;7.65;;
71856;SDS011;59712;46.980;28.882;2022-08-19T06:01:17;10.48;;;6.30;;
71856;SDS011;59712;46.980;28.882;2022-08-19T06:03:46;13.77;;;7.35;;
71856;SDS011;59712;46.980;28.882;2022-08-19T06:06:16;15.63;;;6.53;;
71856;SDS011;59712;46.980;28.882;2022-08-19T06:08:43;18.83;;;9.30;;
71856;SDS011;59712;46.980;28.882;2022-08-19T06:11:35;11.75;;;6.07;;
71856;SDS011;59712;46.980;28.882;2022-08-19T06:14:27;13.88;;;7.55;;
71856;SDS011;59712;46.980;28.882;2022-08-19T06:17:00;18.25;;;8.65;;
71856;SDS011;59712;46.980;28.882;2022-08-19T06:19:32;16.42;;;7.10;;
71856;SDS011;59712;46.980;28.882;2022-08-19T06:22:14;13.48;;;6.80;;
71856;SDS011;59712;46.980;28.882;2022-08-19T06:24:42;16.20;;;8.38;;
71856;SDS011;59712;46.980;28.882;2022-08-19T06:27:14;16.95;;;7.00;;
71856;SDS011;59712;46.980;28.882;2022-08-19T06:29:43;14.30;;;7.10;;
71856;SDS011;59712;46.980;28.882;2022-08-19T06:32:11;18.83;;;6.85;;
71856;SDS011;59712;46.980;28.882;2022-08-19T06:34:45;15.15;;;7.05;;
71856;SDS011;59712;46.980;28.882;2022-08-19T06:37:14;17.38;;;8.25;;
71856;SDS011;59712;46.980;28.882;2022-08-19T06:39:42;16.98;;;9.32;;
71856;SDS011;59712;46.980;28.882;2022-08-19T06:42:11;18.17;;;7.25;;
71856;SDS011;59712;46.980;28.882;2022-08-19T06:44:40;12.43;;;7.25;;
71856;SDS011;59712;46.980;28.882;2022-08-19T06:47:15;15.10;;;7.38;;
71856;SDS011;59712;46.980;28.882;2022-08-19T06:49:58;18.95;;;7.45;;
71856;SDS011;59712;46.980;28.882;2022-08-19T06:52:34;11.48;;;7.18;;
71856;SDS011;59712;46.980;28.882;2022-08-19T06:55:14;15.45;;;6.80;;
71856;SDS011;59712;46.980;28.882;2022-08-19T06:57:46;16.90;;;7.47;;
71856;SDS011;59712;46.980;28.882;2022-08-19T07:00:14;18.52;;;7.18;;
71856;SDS011;59712;46.980;28.882;2022-08-19T07:02:43;15.73;;;6.72;;
71856;SDS011;59712;46.980;28.882;2022-08-19T07:05:23;13.73;;;6.47;;
71856;SDS011;59712;46.980;28.882;2022-08-19T07:07:53;17.70;;;7.60;;
71856;SDS011;59712;46.980;28.882;2022-08-19T07:10:25;13.50;;;6.95;;
71856;SDS011;59712;46.980;28.882;2022-08-19T07:12:52;24.50;;;8.32;;
71856;SDS011;59712;46.980;28.882;2022-08-19T07:15:21;11.85;;;6.75;;
71856;SDS011;59712;46.980;28.882;2022-08-19T07:17:51;14.07;;;6.20;;
71856;SDS011;59712;46.980;28.882;2022-08-19T07:20:20;18.90;;;6.82;;
71856;SDS011;59712;46.980;28.882;2022-08-19T07:22:56;15.05;;;7.05;;
71856;SDS011;59712;46.980;28.882;2022-08-19T07:25:25;12.05;;;6.15;;
71856;SDS011;59712;46.980;28.882;2022-08-19T07:27:59;13.90;;;6.60;;
71856;SDS011;59712;46.980;28.882;2022-08-19T07:30:27;15.75;;;6.68;;
71856;SDS011;59712;46.980;28.882;2022-08-19T07:32:54;14.40;;;7.03;;
71856;SDS011;59712;46.980;28.882;2022-08-19T07:35:24;11.73;;;5.68;;
71856;SDS011;59712;46.980;28.882;2022-08-19T07:37:51;13.10;;;6.60;;
71856;SDS011;59712;46.980;28.882;2022-08-19T07:40:20;10.98;;;6.32;;
71856;SDS011;59712;46.980;28.882;2022-08-19T07:42:55;16.75;;;5.22;;
71856;SDS011;59712;46.980;28.882;2022-08-19T07:45:22;7.95;;;3.92;;
71856;SDS011;59712;46.980;28.882;2022-08-19T07:47:50;5.45;;;4.20;;
71856;SDS011;59712;46.980;28.882;2022-08-19T07:50:19;9.48;;;4.55;;
71856;SDS011;59712;46.980;28.882;2022-08-19T07:52:50;11.20;;;5.03;;
71856;SDS011;59712;46.980;28.882;2022-08-19T07:55:23;12.02;;;3.88;;
71856;SDS011;59712;46.980;28.882;2022-08-19T07:58:13;18.90;;;5.75;;
71856;SDS011;59712;46.980;28.882;2022-08-19T08:00:43;12.63;;;4.22;;
71856;SDS011;59712;46.980;28.882;2022-08-19T08:03:15;13.82;;;4.72;;
71856;SDS011;59712;46.980;28.882;2022-08-19T08:05:46;4.60;;;3.85;;
71856;SDS011;59712;46.980;28.882;2022-08-19T08:08:32;8.15;;;4.40;;
71856;SDS011;59712;46.980;28.882;2022-08-19T08:11:19;5.55;;;3.58;;
71856;SDS011;59712;46.980;28.882;2022-08-19T08:13:49;10.20;;;4.57;;
71856;SDS011;59712;46.980;28.882;2022-08-19T08:16:28;14.20;;;4.10;;
71856;SDS011;59712;46.980;28.882;2022-08-19T08:19:12;9.23;;;4.72;;
71856;SDS011;59712;46.980;28.882;2022-08-19T08:22:07;6.80;;;3.60;;
71856;SDS011;59712;46.980;28.882;2022-08-19T08:25:06;10.18;;;5.07;;
71856;SDS011;59712;46.980;28.882;2022-08-19T08:27:39;10.88;;;5.22;;
71856;SDS011;59712;46.980;28.882;2022-08-19T08:30:10;8.50;;;4.63;;
71856;SDS011;59712;46.980;28.882;2022-08-19T08:33:13;9.10;;;6.45;;
71856;SDS011;59712;46.980;28.882;2022-08-19T08:36:06;12.02;;;5.38;;
71856;SDS011;59712;46.980;28.882;2022-08-19T08:38:34;8.57;;;4.20;;
71856;SDS011;59712;46.980;28.882;2022-08-19T08:44:15;9.10;;;4.43;;
71856;SDS011;59712;46.980;28.882;2022-08-19T08:46:55;8.23;;;3.63;;
71856;SDS011;59712;46.980;28.882;2022-08-19T08:52:20;7.10;;;4.35;;
71856;SDS011;59712;46.980;28.882;2022-08-19T08:54:58;9.18;;;5.22;;
71856;SDS011;59712;46.980;28.882;2022-08-19T08:58:00;8.20;;;4.18;;
71856;SDS011;59712;46.980;28.882;2022-08-19T09:00:38;8.75;;;4.78;;
71856;SDS011;59712;46.980;28.882;2022-08-19T09:03:17;8.48;;;3.72;;
71856;SDS011;59712;46.980;28.882;2022-08-19T09:14:23;7.50;;;4.18;;
71856;SDS011;59712;46.980;28.882;2022-08-19T09:17:15;10.55;;;4.63;;
71856;SDS011;59712;46.980;28.882;2022-08-19T09:19:52;7.32;;;4.68;;
71856;SDS011;59712;46.980;28.882;2022-08-19T09:22:39;11.95;;;4.30;;
71856;SDS011;59712;46.980;28.882;2022-08-19T09:25:13;6.47;;;5.80;;
71856;SDS011;59712;46.980;28.882;2022-08-19T09:27:42;8.98;;;4.55;;
71856;SDS011;59712;46.980;28.882;2022-08-19T09:32:43;8.40;;;4.10;;
71856;SDS011;59712;46.980;28.882;2022-08-19T09:35:31;7.63;;;3.97;;
71856;SDS011;59712;46.980;28.882;2022-08-19T09:38:15;7.57;;;4.18;;
71856;SDS011;59712;46.980;28.882;2022-08-19T09:40:43;6.68;;;4.40;;
71856;SDS011;59712;46.980;28.882;2022-08-19T09:43:12;9.63;;;4.55;;
71856;SDS011;59712;46.980;28.882;2022-08-19T09:45:59;3.78;;;3.20;;
71856;SDS011;59712;46.980;28.882;2022-08-19T09:48:31;7.22;;;4.75;;
71856;SDS011;59712;46.980;28.882;2022-08-19T09:51:12;11.50;;;4.82;;
71856;SDS011;59712;46.980;28.882;2022-08-19T09:53:43;10.30;;;4.60;;
71856;SDS011;59712;46.980;28.882;2022-08-19T09:56:12;9.75;;;5.55;;
71856;SDS011;59712;46.980;28.882;2022-08-19T09:58:40;9.63;;;4.93;;
71856;SDS011;59712;46.980;28.882;2022-08-19T10:01:08;10.63;;;5.55;;
71856;SDS011;59712;46.980;28.882;2022-08-19T10:03:55;9.98;;;5.15;;
71856;SDS011;59712;46.980;28.882;2022-08-19T10:06:28;8.77;;;5.00;;
71856;SDS011;59712;46.980;28.882;2022-08-19T10:09:13;8.52;;;4.70;;
71856;SDS011;59712;46.980;28.882;2022-08-19T10:11:42;9.43;;;5.10;;
71856;SDS011;59712;46.980;28.882;2022-08-19T10:14:20;9.90;;;5.15;;
71856;SDS011;59712;46.980;28.882;2022-08-19T10:16:50;10.77;;;7.10;;
71856;SDS011;59712;46.980;28.882;2022-08-19T10:19:19;9.38;;;5.22;;
71856;SDS011;59712;46.980;28.882;2022-08-19T10:21:52;9.27;;;5.50;;
71856;SDS011;59712;46.980;28.882;2022-08-19T10:24:26;10.30;;;5.55;;
71856;SDS011;59712;46.980;28.882;2022-08-19T10:26:55;8.52;;;3.70;;
71856;SDS011;59712;46.980;28.882;2022-08-19T10:29:29;11.88;;;5.10;;
71856;SDS011;59712;46.980;28.882;2022-08-19T10:32:00;15.27;;;6.13;;
71856;SDS011;59712;46.980;28.882;2022-08-19T10:34:29;11.10;;;5.32;;
71856;SDS011;59712;46.980;28.882;2022-08-19T10:37:00;15.32;;;5.53;;
71856;SDS011;59712;46.980;28.882;2022-08-19T10:39:33;10.70;;;5.05;;
71856;SDS011;59712;46.980;28.882;2022-08-19T10:42:23;12.95;;;5.18;;
71856;SDS011;59712;46.980;28.882;2022-08-19T10:44:52;12.70;;;4.88;;
71856;SDS011;59712;46.980;28.882;2022-08-19T10:47:22;8.45;;;3.90;;
71856;SDS011;59712;46.980;28.882;2022-08-19T10:52:43;8.85;;;3.95;;
71856;SDS011;59712;46.980;28.882;2022-08-19T10:55:17;9.25;;;4.07;;
71856;SDS011;59712;46.980;28.882;2022-08-19T10:58:13;15.23;;;5.72;;
71856;SDS011;59712;46.980;28.882;2022-08-19T11:00:41;9.50;;;4.32;;
71856;SDS011;59712;46.980;28.882;2022-08-19T11:03:12;13.63;;;4.57;;
71856;SDS011;59712;46.980;28.882;2022-08-19T11:05:40;9.77;;;5.43;;
71856;SDS011;59712;46.980;28.882;2022-08-19T11:08:08;7.75;;;3.78;;
71856;SDS011;59712;46.980;28.882;2022-08-19T11:10:52;6.47;;;4.30;;
71856;SDS011;59712;46.980;28.882;2022-08-19T11:13:27;10.25;;;4.00;;
71856;SDS011;59712;46.980;28.882;2022-08-19T11:15:59;9.32;;;4.13;;
71856;SDS011;59712;46.980;28.882;2022-08-19T11:18:40;7.20;;;3.90;;
71856;SDS011;59712;46.980;28.882;2022-08-19T11:23:47;10.40;;;4.43;;
71856;SDS011;59712;46.980;28.882;2022-08-19T11:26:16;12.00;;;3.90;;
71856;SDS011;59712;46.980;28.882;2022-08-19T11:28:44;7.07;;;3.63;;
71856;SDS011;59712;46.980;28.882;2022-08-19T11:31:16;10.05;;;3.72;;
71856;SDS011;59712;46.980;28.882;2022-08-19T11:33:45;8.90;;;3.92;;
71856;SDS011;59712;46.980;28.882;2022-08-19T11:36:13;6.80;;;2.55;;
71856;SDS011;59712;46.980;28.882;2022-08-19T11:38:42;8.55;;;3.75;;
71856;SDS011;59712;46.980;28.882;2022-08-19T11:41:10;12.65;;;3.08;;
71856;SDS011;59712;46.980;28.882;2022-08-19T11:43:38;6.57;;;3.28;;
71856;SDS011;59712;46.980;28.882;2022-08-19T11:46:07;13.05;;;4.65;;
71856;SDS011;59712;46.980;28.882;2022-08-19T11:48:36;9.25;;;3.75;;
71856;SDS011;59712;46.980;28.882;2022-08-19T11:51:06;8.82;;;3.92;;
71856;SDS011;59712;46.980;28.882;2022-08-19T11:53:35;7.25;;;3.97;;
71856;SDS011;59712;46.980;28.882;2022-08-19T11:58:31;7.50;;;3.85;;
71856;SDS011;59712;46.980;28.882;2022-08-19T12:00:58;7.90;;;3.10;;
71856;SDS011;59712;46.980;28.882;2022-08-19T12:03:26;10.98;;;3.50;;
71856;SDS011;59712;46.980;28.882;2022-08-19T12:05:54;11.57;;;4.18;;
71856;SDS011;59712;46.980;28.882;2022-08-19T12:08:21;10.75;;;4.47;;
71856;SDS011;59712;46.980;28.882;2022-08-19T12:10:49;12.00;;;4.35;;
71856;SDS011;59712;46.980;28.882;2022-08-19T12:13:16;13.90;;;3.55;;
71856;SDS011;59712;46.980;28.882;2022-08-19T12:15:45;10.93;;;4.40;;
71856;SDS011;59712;46.980;28.882;2022-08-19T12:18:14;10.63;;;4.03;;
71856;SDS011;59712;46.980;28.882;2022-08-19T12:20:42;10.50;;;3.58;;
71856;SDS011;59712;46.980;28.882;2022-08-19T12:23:10;11.30;;;4.72;;
71856;SDS011;59712;46.980;28.882;2022-08-19T12:25:37;4.95;;;3.20;;
71856;SDS011;59712;46.980;28.882;2022-08-19T12:28:17;15.98;;;5.28;;
71856;SDS011;59712;46.980;28.882;2022-08-19T12:30:47;6.40;;;3.78;;
71856;SDS011;59712;46.980;28.882;2022-08-19T12:33:19;10.15;;;5.05;;
71856;SDS011;59712;46.980;28.882;2022-08-19T12:35:50;9.88;;;4.78;;
71856;SDS011;59712;46.980;28.882;2022-08-19T12:38:19;13.15;;;3.90;;
71856;SDS011;59712;46.980;28.882;2022-08-19T12:40:46;10.18;;;4.55;;
71856;SDS011;59712;46.980;28.882;2022-08-19T12:43:15;12.82;;;5.03;;
71856;SDS011;59712;46.980;28.882;2022-08-19T12:45:42;7.90;;;3.30;;
71856;SDS011;59712;46.980;28.882;2022-08-19T12:48:12;10.60;;;5.13;;
71856;SDS011;59712;46.980;28.882;2022-08-19T12:51:05;7.15;;;3.80;;
71856;SDS011;59712;46.980;28.882;2022-08-19T12:53:36;9.10;;;4.45;;
71856;SDS011;59712;46.980;28.882;2022-08-19T12:56:19;12.48;;;4.50;;
71856;SDS011;59712;46.980;28.882;2022-08-19T12:58:49;4.13;;;3.25;;
71856;SDS011;59712;46.980;28.882;2022-08-19T13:01:21;8.40;;;4.22;;
71856;SDS011;59712;46.980;28.882;2022-08-19T13:03:50;8.45;;;4.30;;
71856;SDS011;59712;46.980;28.882;2022-08-19T13:06:21;10.48;;;3.80;;
71856;SDS011;59712;46.980;28.882;2022-08-19T13:08:49;7.97;;;4.68;;
71856;SDS011;59712;46.980;28.882;2022-08-19T13:11:34;9.65;;;4.57;;
71856;SDS011;59712;46.980;28.882;2022-08-19T13:16:30;9.18;;;4.45;;
71856;SDS011;59712;46.980;28.882;2022-08-19T13:21:25;12.43;;;4.10;;
71856;SDS011;59712;46.980;28.882;2022-08-19T13:23:57;12.93;;;4.35;;
71856;SDS011;59712;46.980;28.882;2022-08-19T13:26:32;4.07;;;2.10;;
71856;SDS011;59712;46.980;28.882;2022-08-19T13:29:00;14.32;;;5.60;;
71856;SDS011;59712;46.980;28.882;2022-08-19T13:31:54;8.45;;;4.35;;
71856;SDS011;59712;46.980;28.882;2022-08-19T13:34:44;11.63;;;4.40;;
71856;SDS011;59712;46.980;28.882;2022-08-19T13:37:14;15.30;;;4.18;;
71856;SDS011;59712;46.980;28.882;2022-08-19T13:39:41;6.85;;;4.07;;
71856;SDS011;59712;46.980;28.882;2022-08-19T13:42:08;11.50;;;4.45;;
71856;SDS011;59712;46.980;28.882;2022-08-19T13:44:37;9.75;;;4.28;;
71856;SDS011;59712;46.980;28.882;2022-08-19T13:47:04;15.40;;;4.88;;
71856;SDS011;59712;46.980;28.882;2022-08-19T13:49:34;9.07;;;3.92;;
71856;SDS011;59712;46.980;28.882;2022-08-19T13:52:03;6.32;;;3.30;;
71856;SDS011;59712;46.980;28.882;2022-08-19T13:54:32;11.90;;;3.90;;
71856;SDS011;59712;46.980;28.882;2022-08-19T13:57:14;15.60;;;4.32;;
71856;SDS011;59712;46.980;28.882;2022-08-19T13:59:42;10.38;;;4.00;;
71856;SDS011;59712;46.980;28.882;2022-08-19T14:02:09;18.45;;;4.22;;
71856;SDS011;59712;46.980;28.882;2022-08-19T14:04:37;10.95;;;3.50;;
71856;SDS011;59712;46.980;28.882;2022-08-19T14:07:04;7.03;;;2.72;;
71856;SDS011;59712;46.980;28.882;2022-08-19T14:09:31;6.88;;;3.50;;
71856;SDS011;59712;46.980;28.882;2022-08-19T14:11:58;12.13;;;5.10;;
71856;SDS011;59712;46.980;28.882;2022-08-19T14:14:25;10.13;;;3.50;;
71856;SDS011;59712;46.980;28.882;2022-08-19T14:16:53;10.70;;;3.60;;
71856;SDS011;59712;46.980;28.882;2022-08-19T14:19:20;9.65;;;4.50;;
71856;SDS011;59712;46.980;28.882;2022-08-19T14:21:49;4.65;;;3.10;;
71856;SDS011;59712;46.980;28.882;2022-08-19T14:24:16;11.68;;;3.25;;
71856;SDS011;59712;46.980;28.882;2022-08-19T14:26:44;8.88;;;3.85;;
71856;SDS011;59712;46.980;28.882;2022-08-19T14:29:11;11.10;;;3.45;;
71856;SDS011;59712;46.980;28.882;2022-08-19T14:31:39;11.15;;;3.10;;
71856;SDS011;59712;46.980;28.882;2022-08-19T14:34:09;14.82;;;4.75;;
71856;SDS011;59712;46.980;28.882;2022-08-19T14:36:37;7.30;;;3.10;;
71856;SDS011;59712;46.980;28.882;2022-08-19T14:39:11;9.38;;;3.92;;
71856;SDS011;59712;46.980;28.882;2022-08-19T14:42:05;10.15;;;5.10;;
71856;SDS011;59712;46.980;28.882;2022-08-19T14:44:37;8.65;;;3.20;;
71856;SDS011;59712;46.980;28.882;2022-08-19T14:47:04;8.30;;;3.20;;
71856;SDS011;59712;46.980;28.882;2022-08-19T14:49:35;13.63;;;5.68;;
71856;SDS011;59712;46.980;28.882;2022-08-19T14:52:11;9.65;;;3.15;;
71856;SDS011;59712;46.980;28.882;2022-08-19T14:54:41;6.90;;;2.65;;
71856;SDS011;59712;46.980;28.882;2022-08-19T14:57:16;11.25;;;4.10;;
71856;SDS011;59712;46.980;28.882;2022-08-19T14:59:43;8.70;;;2.72;;
71856;SDS011;59712;46.980;28.882;2022-08-19T15:02:10;11.38;;;4.60;;
71856;SDS011;59712;46.980;28.882;2022-08-19T15:04:59;9.93;;;3.33;;
71856;SDS011;59712;46.980;28.882;2022-08-19T15:07:28;13.65;;;4.03;;
71856;SDS011;59712;46.980;28.882;2022-08-19T15:09:58;8.88;;;2.90;;
71856;SDS011;59712;46.980;28.882;2022-08-19T15:12:34;8.77;;;2.63;;
71856;SDS011;59712;46.980;28.882;2022-08-19T15:15:10;13.75;;;3.83;;
71856;SDS011;59712;46.980;28.882;2022-08-19T15:17:41;8.98;;;4.50;;
71856;SDS011;59712;46.980;28.882;2022-08-19T15:20:14;13.00;;;3.05;;
71856;SDS011;59712;46.980;28.882;2022-08-19T15:22:46;9.85;;;3.47;;
71856;SDS011;59712;46.980;28.882;2022-08-19T15:25:15;10.00;;;3.83;;
71856;SDS011;59712;46.980;28.882;2022-08-19T15:27:45;12.05;;;3.45;;
71856;SDS011;59712;46.980;28.882;2022-08-19T15:32:50;11.57;;;3.97;;
71856;SDS011;59712;46.980;28.882;2022-08-19T15:35:19;16.60;;;4.40;;